createdAt,value
2022-12-11T00:02:16.806Z,-1.31
2022-12-11T00:05:02.383Z,-1.33
2022-12-11T00:07:48.198Z,-1.35
2022-12-11T00:10:37.668Z,-1.36
2022-12-11T00:13:24.297Z,-1.40
2022-12-11T00:16:10.559Z,-1.44
2022-12-11T00:18:56.453Z,-1.45
2022-12-11T00:21:41.693Z,-1.51
2022-12-11T00:24:27.070Z,-1.52
2022-12-11T00:27:15.471Z,-1.59
2022-12-11T00:30:01.023Z,-1.61
2022-12-11T00:32:46.856Z,-1.59
2022-12-11T00:35:32.297Z,-1.59
2022-12-11T00:38:20.826Z,-1.61
2022-12-11T00:41:06.394Z,-1.64
2022-12-11T00:43:52.228Z,-1.65
2022-12-11T00:46:38.735Z,-1.67
2022-12-11T00:49:24.192Z,-1.70
2022-12-11T00:52:10.927Z,-1.66
2022-12-11T00:54:56.629Z,-1.67
2022-12-11T00:57:42.139Z,-1.69
2022-12-11T01:00:27.997Z,-1.69
2022-12-11T01:03:15.053Z,-1.70
2022-12-11T01:06:00.618Z,-1.71
2022-12-11T01:08:46.711Z,-1.71
2022-12-11T01:11:32.052Z,-1.71
2022-12-11T01:14:17.658Z,-1.71
2022-12-11T01:17:03.307Z,-1.71
2022-12-11T01:19:48.497Z,-1.73
2022-12-11T01:22:34.048Z,-1.74
2022-12-11T01:25:19.727Z,-1.74
2022-12-11T01:28:06.882Z,-1.75
2022-12-11T01:30:52.417Z,-1.76
2022-12-11T01:33:38.561Z,-1.76
2022-12-11T01:36:24.518Z,-1.80
2022-12-11T01:39:10.300Z,-1.78
2022-12-11T01:42:00.344Z,-1.77
2022-12-11T01:44:48.566Z,-1.82
2022-12-11T01:47:33.756Z,-1.81
2022-12-11T01:50:19.536Z,-1.80
2022-12-11T01:53:08.211Z,-1.81
2022-12-11T01:55:56.358Z,-1.81
2022-12-11T01:58:51.608Z,-1.76
2022-12-11T02:01:51.180Z,-1.81
2022-12-11T02:04:39.085Z,-1.78
2022-12-11T02:07:24.790Z,-1.79
2022-12-11T02:10:12.286Z,-1.79
2022-12-11T02:13:05.821Z,-1.81
2022-12-11T02:16:17.597Z,-1.80
2022-12-11T02:19:18.210Z,-1.80
2022-12-11T02:22:08.965Z,-1.81
2022-12-11T02:25:11.024Z,-1.83
2022-12-11T02:28:38.519Z,-1.83
2022-12-11T02:31:24.028Z,-1.84
2022-12-11T02:34:21.295Z,-1.89
2022-12-11T02:37:18.293Z,-1.87
2022-12-11T02:40:08.341Z,-1.88
2022-12-11T02:42:56.499Z,-1.87
2022-12-11T02:45:44.110Z,-1.88
2022-12-11T02:48:33.940Z,-1.90
2022-12-11T02:51:24.583Z,-1.91
2022-12-11T02:54:20.951Z,-1.90
2022-12-11T02:57:16.374Z,-1.95
2022-12-11T03:00:02.071Z,-1.92
2022-12-11T03:02:47.758Z,-1.91
2022-12-11T03:05:33.382Z,-1.90
2022-12-11T03:08:18.875Z,-1.94
2022-12-11T03:11:11.996Z,-1.95
2022-12-11T03:13:57.506Z,-1.96
2022-12-11T03:16:52.294Z,-1.96
2022-12-11T03:19:53.260Z,-1.99
2022-12-11T03:22:38.925Z,-2.02
2022-12-11T03:26:02.439Z,-2.03
2022-12-11T03:28:56.454Z,-2.00
2022-12-11T03:32:04.884Z,-2.01
2022-12-11T03:35:03.608Z,-2.03
2022-12-11T03:37:53.216Z,-2.06
2022-12-11T03:40:42.282Z,-2.07
2022-12-11T03:43:30.634Z,-2.04
2022-12-11T03:46:21.241Z,-2.05
2022-12-11T03:49:13.487Z,-2.11
2022-12-11T03:52:01.238Z,-2.08
2022-12-11T03:54:49.694Z,-2.08
2022-12-11T03:57:37.814Z,-2.09
2022-12-11T04:00:23.522Z,-2.10
2022-12-11T04:03:14.992Z,-2.12
2022-12-11T04:06:00.640Z,-2.13
2022-12-11T04:08:46.253Z,-2.14
2022-12-11T04:11:34.524Z,-2.16
2022-12-11T04:14:42.269Z,-2.17
2022-12-11T04:17:47.104Z,-2.19
2022-12-11T04:20:51.389Z,-2.18
2022-12-11T04:23:55.029Z,-2.20
2022-12-11T04:26:41.467Z,-2.21
2022-12-11T04:29:27.011Z,-2.21
2022-12-11T04:32:12.615Z,-2.20
2022-12-11T04:34:58.158Z,-2.20
2022-12-11T04:37:43.997Z,-2.19
2022-12-11T04:40:29.898Z,-2.21
2022-12-11T04:43:15.162Z,-2.23
2022-12-11T04:46:06.162Z,-2.24
2022-12-11T04:48:57.394Z,-2.29
2022-12-11T04:51:43.774Z,-2.30
2022-12-11T04:54:35.165Z,-2.31
2022-12-11T04:57:21.658Z,-2.34
2022-12-11T05:00:09.545Z,-2.36
2022-12-11T05:02:54.773Z,-2.38
2022-12-11T05:05:40.219Z,-2.40
2022-12-11T05:08:27.467Z,-2.42
2022-12-11T05:11:15.561Z,-2.44
2022-12-11T05:14:01.064Z,-2.47
2022-12-11T05:16:49.733Z,-2.51
2022-12-11T05:19:34.920Z,-2.54
2022-12-11T05:22:20.531Z,-2.56
2022-12-11T05:25:06.946Z,-2.60
2022-12-11T05:27:52.450Z,-2.61
2022-12-11T05:30:37.950Z,-2.63
2022-12-11T05:33:23.285Z,-2.65
2022-12-11T05:36:37.635Z,-2.66
2022-12-11T05:39:23.214Z,-2.73
2022-12-11T05:42:08.618Z,-2.72
2022-12-11T05:44:53.868Z,-2.74
2022-12-11T05:47:39.212Z,-2.75
2022-12-11T05:50:24.741Z,-2.76
2022-12-11T05:53:10.141Z,-2.78
2022-12-11T05:56:00.917Z,-2.77
2022-12-11T05:58:47.143Z,-2.78
2022-12-11T06:01:40.969Z,-2.79
2022-12-11T06:04:26.577Z,-2.78
2022-12-11T06:07:13.618Z,-2.79
2022-12-11T06:09:58.981Z,-2.79
2022-12-11T06:12:44.573Z,-2.82
2022-12-11T06:15:30.071Z,-2.83
2022-12-11T06:18:15.680Z,-2.82
2022-12-11T06:21:00.847Z,-2.83
2022-12-11T06:23:47.590Z,-2.82
2022-12-11T06:26:33.281Z,-2.83
2022-12-11T06:29:18.904Z,-2.85
2022-12-11T06:32:04.252Z,-2.84
2022-12-11T06:34:49.660Z,-2.84
2022-12-11T06:37:36.356Z,-2.81
2022-12-11T06:40:22.346Z,-2.82
2022-12-11T06:43:07.896Z,-2.82
2022-12-11T06:45:53.410Z,-2.89
2022-12-11T06:48:44.760Z,-2.93
2022-12-11T06:51:31.319Z,-2.97
2022-12-11T06:54:16.733Z,-2.99
2022-12-11T06:57:02.099Z,-3.04
2022-12-11T06:59:47.671Z,-3.07
2022-12-11T07:02:36.166Z,-3.10
2022-12-11T07:05:21.671Z,-3.14
2022-12-11T07:08:07.580Z,-3.23
2022-12-11T07:10:53.007Z,-3.27
2022-12-11T07:13:38.867Z,-3.32
2022-12-11T07:16:25.012Z,-3.37
2022-12-11T07:19:11.152Z,-3.42
2022-12-11T07:21:56.650Z,-3.48
2022-12-11T07:24:42.199Z,-3.53
2022-12-11T07:27:27.280Z,-3.60
2022-12-11T07:30:13.180Z,-3.62
2022-12-11T07:32:58.650Z,-3.63
2022-12-11T07:35:44.347Z,-3.66
2022-12-11T07:38:29.565Z,-3.64
2022-12-11T07:41:16.371Z,-3.57
2022-12-11T07:44:03.320Z,-3.58
2022-12-11T07:46:48.799Z,-3.51
2022-12-11T07:49:34.145Z,-3.49
2022-12-11T07:52:19.595Z,-3.46
2022-12-11T07:55:05.540Z,-3.41
2022-12-11T07:57:51.039Z,-3.35
2022-12-11T08:00:36.422Z,-3.28
2022-12-11T08:03:21.840Z,-3.17
2022-12-11T08:06:07.334Z,-3.09
2022-12-11T08:08:54.542Z,-2.99
2022-12-11T08:11:40.461Z,-2.88
2022-12-11T08:14:26.149Z,-2.78
2022-12-11T08:17:11.342Z,-2.68
2022-12-11T08:19:57.330Z,-2.60
2022-12-11T08:22:42.733Z,-2.53
2022-12-11T08:25:28.198Z,-2.44
2022-12-11T08:28:13.823Z,-2.37
2022-12-11T08:30:59.820Z,-2.27
2022-12-11T08:33:46.156Z,-2.21
2022-12-11T08:36:31.157Z,-2.16
2022-12-11T08:39:16.462Z,-2.13
2022-12-11T08:42:01.932Z,-2.10
2022-12-11T08:44:47.427Z,-2.09
2022-12-11T08:47:32.932Z,-2.07
2022-12-11T08:50:18.300Z,-2.06
2022-12-11T08:53:04.251Z,-2.03
2022-12-11T08:55:49.699Z,-2.01
2022-12-11T08:58:35.962Z,-2.01
2022-12-11T09:01:24.840Z,-1.94
2022-12-11T09:04:10.521Z,-1.92
2022-12-11T09:06:55.926Z,-1.96
2022-12-11T09:09:41.417Z,-1.97
2022-12-11T09:12:28.832Z,-1.98
2022-12-11T09:15:14.632Z,-1.97
2022-12-11T09:17:59.989Z,-1.97
2022-12-11T09:20:45.433Z,-1.97
2022-12-11T09:23:30.774Z,-1.97
2022-12-11T09:26:20.234Z,-1.96
2022-12-11T09:29:06.919Z,-1.96
2022-12-11T09:31:52.577Z,-1.97
2022-12-11T09:34:38.170Z,-1.90
2022-12-11T09:37:23.524Z,-1.85
2022-12-11T09:40:12.300Z,-1.80
2022-12-11T09:43:06.814Z,-1.76
2022-12-11T09:45:52.164Z,-1.74
2022-12-11T09:48:39.943Z,-1.76
2022-12-11T09:51:47.503Z,-1.77
2022-12-11T09:54:33.522Z,-1.78
2022-12-11T09:57:48.618Z,-1.75
2022-12-11T10:00:48.061Z,-1.65
2022-12-11T10:03:36.312Z,-1.60
2022-12-11T10:06:38.327Z,-1.62
2022-12-11T10:09:36.167Z,-1.64
2022-12-11T10:12:30.564Z,-1.69
2022-12-11T10:15:19.139Z,-1.73
2022-12-11T10:18:10.082Z,-1.78
2022-12-11T10:20:57.203Z,-1.81
2022-12-11T10:23:53.802Z,-1.88
2022-12-11T10:26:39.966Z,-1.87
2022-12-11T10:29:25.361Z,-1.86
2022-12-11T10:32:24.653Z,-1.85
2022-12-11T10:35:18.475Z,-1.83
2022-12-11T10:38:27.596Z,-1.79
2022-12-11T10:41:18.171Z,-1.80
2022-12-11T10:44:34.857Z,-1.77
2022-12-11T10:47:20.048Z,-1.78
2022-12-11T10:50:05.881Z,-1.83
2022-12-11T10:52:53.201Z,-1.89
2022-12-11T10:55:45.440Z,-1.92
2022-12-11T10:58:34.482Z,-1.91
2022-12-11T11:01:29.791Z,-1.96
2022-12-11T11:04:21.137Z,-1.96
2022-12-11T11:07:13.700Z,-1.95
2022-12-11T11:10:11.387Z,-1.92
2022-12-11T11:13:01.363Z,-1.90
2022-12-11T11:15:47.144Z,-1.90
2022-12-11T11:18:33.784Z,-1.92
2022-12-11T11:21:21.486Z,-1.99
2022-12-11T11:24:06.889Z,-2.04
2022-12-11T11:30:08.353Z,-2.15
2022-12-11T11:33:11.209Z,-2.17
2022-12-11T11:36:06.659Z,-2.14
2022-12-11T11:39:17.090Z,-2.14
2022-12-11T11:42:29.934Z,-2.12
2022-12-11T11:45:35.071Z,-2.09
2022-12-11T11:48:45.435Z,-2.06
2022-12-11T11:51:36.273Z,-2.02
2022-12-11T11:54:43.139Z,-2.00
2022-12-11T11:57:37.636Z,-1.95
2022-12-11T12:00:30.356Z,-1.91
2022-12-11T12:03:21.849Z,-1.87
2022-12-11T12:06:14.865Z,-1.84
2022-12-11T12:09:09.282Z,-1.79
2022-12-11T12:12:22.741Z,-1.75
2022-12-11T12:15:29.825Z,-1.67
2022-12-11T12:18:18.462Z,-1.66
2022-12-11T12:21:27.785Z,-1.62
2022-12-11T12:24:45.585Z,-1.57
2022-12-11T12:27:52.215Z,-1.54
2022-12-11T12:30:56.829Z,-1.57
2022-12-11T12:34:03.202Z,-1.63
2022-12-11T12:37:17.433Z,-1.67
2022-12-11T12:40:24.907Z,-1.72
2022-12-11T12:43:47.682Z,-1.73
2022-12-11T12:47:05.879Z,-1.72
2022-12-11T12:49:55.657Z,-1.69
2022-12-11T12:52:42.298Z,-1.68
2022-12-11T12:55:31.839Z,-1.66
2022-12-11T12:58:28.617Z,-1.62
2022-12-11T13:01:25.899Z,-1.58
2022-12-11T13:04:56.124Z,-1.54
2022-12-11T13:07:54.204Z,-1.50
2022-12-11T13:10:43.485Z,-1.48
2022-12-11T13:13:37.349Z,-1.47
2022-12-11T13:16:26.960Z,-1.43
2022-12-11T13:19:27.580Z,-1.43
2022-12-11T13:22:12.792Z,-1.40
2022-12-11T13:25:01.839Z,-1.36
2022-12-11T13:27:47.379Z,-1.34
2022-12-11T13:30:32.977Z,-1.34
2022-12-11T13:33:19.253Z,-1.33
2022-12-11T13:36:16.725Z,-1.33
2022-12-11T13:39:24.099Z,-1.34
2022-12-11T13:42:27.306Z,-1.35
2022-12-11T13:45:38.033Z,-1.39
2022-12-11T13:48:28.972Z,-1.46
2022-12-11T13:51:22.916Z,-1.54
2022-12-11T13:54:18.193Z,-1.61
2022-12-11T13:57:17.685Z,-1.64
2022-12-11T14:00:04.484Z,-1.66
2022-12-11T14:02:51.955Z,-1.68
2022-12-11T14:05:37.097Z,-1.68
2022-12-11T14:08:34.284Z,-1.73
2022-12-11T14:11:35.769Z,-1.75
2022-12-11T14:14:47.830Z,-1.78
2022-12-11T14:17:36.288Z,-1.83
2022-12-11T14:20:25.848Z,-1.84
2022-12-11T14:23:20.492Z,-1.89
2022-12-11T14:26:22.511Z,-1.96
2022-12-11T14:29:07.731Z,-2.01
2022-12-11T14:31:54.395Z,-2.03
2022-12-11T14:34:45.455Z,-2.11
2022-12-11T14:37:31.979Z,-2.16
2022-12-11T14:40:20.259Z,-2.19
2022-12-11T14:43:13.250Z,-2.23
2022-12-11T14:46:02.907Z,-2.28
2022-12-11T14:49:00.618Z,-2.31
2022-12-11T14:51:48.209Z,-2.33
2022-12-11T14:54:45.159Z,-2.36
2022-12-11T14:57:33.223Z,-2.39
2022-12-11T15:00:24.802Z,-2.45
2022-12-11T15:03:10.049Z,-2.48
2022-12-11T15:05:57.881Z,-2.48
2022-12-11T15:08:43.629Z,-2.51
2022-12-11T15:11:32.566Z,-2.53
2022-12-11T15:14:22.711Z,-2.60
2022-12-11T15:17:14.710Z,-2.59
2022-12-11T15:20:09.235Z,-2.61
2022-12-11T15:22:58.995Z,-2.66
2022-12-11T15:25:54.981Z,-2.65
2022-12-11T15:28:40.875Z,-2.65
2022-12-11T15:31:29.330Z,-2.68
2022-12-11T15:34:23.987Z,-2.72
2022-12-11T15:37:24.606Z,-2.83
2022-12-11T15:40:11.404Z,-2.82
2022-12-11T15:42:57.962Z,-2.87
2022-12-11T15:45:43.568Z,-2.88
2022-12-11T15:48:29.275Z,-2.91
2022-12-11T15:51:15.683Z,-2.96
2022-12-11T15:54:02.363Z,-2.94
2022-12-11T15:56:48.116Z,-2.96
2022-12-11T15:59:34.742Z,-2.96
2022-12-11T16:02:20.619Z,-2.99
2022-12-11T16:05:06.546Z,-3.02
2022-12-11T16:07:54.119Z,-3.00
2022-12-11T16:10:40.067Z,-2.97
2022-12-11T16:13:25.871Z,-2.97
2022-12-11T16:16:11.740Z,-3.01
2022-12-11T16:18:57.319Z,-3.00
2022-12-11T16:21:42.852Z,-3.00
2022-12-11T16:24:28.766Z,-3.03
2022-12-11T16:27:18.580Z,-3.07
2022-12-11T16:30:07.967Z,-3.10
2022-12-11T16:32:53.869Z,-3.12
2022-12-11T16:35:39.628Z,-3.10
2022-12-11T16:38:24.978Z,-3.12
2022-12-11T16:41:10.740Z,-3.15
2022-12-11T16:43:56.122Z,-3.16
2022-12-11T16:46:43.443Z,-3.14
2022-12-11T16:49:31.213Z,-3.11
2022-12-11T16:52:21.962Z,-3.15
2022-12-11T16:55:08.810Z,-3.24
2022-12-11T16:57:55.228Z,-3.28
2022-12-11T17:00:40.346Z,-3.33
2022-12-11T17:03:25.832Z,-3.36
2022-12-11T17:06:15.140Z,-3.35
2022-12-11T17:09:00.908Z,-3.40
2022-12-11T17:11:47.102Z,-3.41
2022-12-11T17:14:32.511Z,-3.45
2022-12-11T17:17:18.325Z,-3.46
2022-12-11T17:20:04.268Z,-3.49
2022-12-11T17:22:53.397Z,-3.48
2022-12-11T17:25:43.129Z,-3.50
2022-12-11T17:28:29.722Z,-3.51
2022-12-11T17:31:18.210Z,-3.53
2022-12-11T17:34:04.452Z,-3.54
2022-12-11T17:36:50.049Z,-3.56
2022-12-11T17:39:36.865Z,-3.56
2022-12-11T17:42:22.293Z,-3.60
2022-12-11T17:45:07.932Z,-3.61
2022-12-11T17:47:53.662Z,-3.62
2022-12-11T17:50:47.278Z,-3.62
2022-12-11T17:53:33.099Z,-3.63
2022-12-11T17:56:18.616Z,-3.62
2022-12-11T17:59:04.725Z,-3.63
2022-12-11T18:01:49.953Z,-3.62
2022-12-11T18:04:38.603Z,-3.63
2022-12-11T18:07:25.326Z,-3.63
2022-12-11T18:10:10.820Z,-3.62
2022-12-11T18:12:56.282Z,-3.62
2022-12-11T18:15:42.069Z,-3.63
2022-12-11T18:18:29.678Z,-3.65
2022-12-11T18:21:19.539Z,-3.69
2022-12-11T18:24:05.646Z,-3.72
2022-12-11T18:26:51.433Z,-3.74
2022-12-11T18:29:38.665Z,-3.78
2022-12-11T18:32:24.225Z,-3.78
2022-12-11T18:35:11.302Z,-3.79
2022-12-11T18:37:57.342Z,-3.81
2022-12-11T18:40:42.515Z,-3.82
2022-12-11T18:43:27.988Z,-3.84
2022-12-11T18:46:16.040Z,-3.85
2022-12-11T18:49:01.500Z,-3.82
2022-12-11T18:51:46.945Z,-3.82
2022-12-11T18:54:32.529Z,-3.82
2022-12-11T18:57:18.169Z,-3.83
2022-12-11T19:00:07.521Z,-3.87
2022-12-11T19:02:53.230Z,-3.81
2022-12-11T19:05:42.461Z,-3.81
2022-12-11T19:08:27.925Z,-3.82
2022-12-11T19:11:18.536Z,-3.84
2022-12-11T19:14:05.635Z,-3.88
2022-12-11T19:16:51.493Z,-3.90
2022-12-11T19:19:37.812Z,-3.89
2022-12-11T19:22:23.852Z,-3.90
2022-12-11T19:25:09.978Z,-3.90
2022-12-11T19:27:57.423Z,-3.93
2022-12-11T19:30:48.928Z,-3.96
2022-12-11T19:33:34.404Z,-3.99
2022-12-11T19:36:22.945Z,-4.00
2022-12-11T19:39:12.985Z,-4.01
2022-12-11T19:41:59.499Z,-4.02
2022-12-11T19:44:45.397Z,-4.04
2022-12-11T19:47:31.147Z,-4.06
2022-12-11T19:50:18.160Z,-4.06
2022-12-11T19:53:05.128Z,-4.07
2022-12-11T19:55:53.361Z,-4.07
2022-12-11T19:58:39.692Z,-4.09
2022-12-11T20:01:29.678Z,-4.08
2022-12-11T20:04:16.927Z,-4.11
2022-12-11T20:07:03.346Z,-4.11
2022-12-11T20:09:49.285Z,-4.14
2022-12-11T20:12:34.794Z,-4.14
2022-12-11T20:15:21.475Z,-4.15
2022-12-11T20:18:06.977Z,-4.17
2022-12-11T20:20:54.916Z,-4.15
2022-12-11T20:23:43.306Z,-4.15
2022-12-11T20:26:31.722Z,-4.15
2022-12-11T20:29:17.993Z,-4.17
2022-12-11T20:32:05.771Z,-4.17
2022-12-11T20:34:55.829Z,-4.18
2022-12-11T20:37:43.750Z,-4.19
2022-12-11T20:40:30.235Z,-4.20
2022-12-11T20:43:16.024Z,-4.21
2022-12-11T20:46:01.959Z,-4.22
2022-12-11T20:48:49.490Z,-4.23
2022-12-11T20:51:35.463Z,-4.26
2022-12-11T20:54:21.512Z,-4.27
2022-12-11T20:57:07.395Z,-4.27
2022-12-11T20:59:53.263Z,-4.23
2022-12-11T21:02:39.061Z,-4.27
2022-12-11T21:05:24.546Z,-4.28
2022-12-11T21:08:13.716Z,-4.29
2022-12-11T21:10:59.428Z,-4.32
2022-12-11T21:13:44.864Z,-4.33
2022-12-11T21:16:30.889Z,-4.34
2022-12-11T21:19:17.227Z,-4.36
2022-12-11T21:22:03.065Z,-4.37
2022-12-11T21:24:48.757Z,-4.37
2022-12-11T21:27:34.535Z,-4.39
2022-12-11T21:30:21.327Z,-4.39
2022-12-11T21:33:07.146Z,-4.42
2022-12-11T21:35:59.271Z,-4.44
2022-12-11T21:38:46.366Z,-4.46
2022-12-11T21:41:31.826Z,-4.46
2022-12-11T21:47:22.543Z,-4.55
2022-12-11T21:50:08.101Z,-4.60
2022-12-11T21:52:53.151Z,-4.64
2022-12-11T21:55:42.764Z,-4.69
2022-12-11T21:58:28.292Z,-4.72
2022-12-11T22:01:17.196Z,-4.76
2022-12-11T22:04:03.197Z,-4.78
2022-12-11T22:06:48.599Z,-4.83
2022-12-11T22:09:33.865Z,-4.86
2022-12-11T22:12:26.185Z,-4.89
2022-12-11T22:15:12.108Z,-4.92
2022-12-11T22:17:57.867Z,-4.90
2022-12-11T22:20:43.564Z,-4.96
2022-12-11T22:23:31.234Z,-5.01
2022-12-11T22:26:18.191Z,-5.05
2022-12-11T22:29:03.790Z,-5.09
2022-12-11T22:31:49.305Z,-5.13
2022-12-11T22:34:35.108Z,-5.19
2022-12-11T22:37:20.714Z,-5.24
2022-12-11T22:40:06.471Z,-5.26
2022-12-11T22:42:51.603Z,-5.28
2022-12-11T22:45:40.629Z,-5.31
2022-12-11T22:48:27.451Z,-5.33
2022-12-11T22:51:13.579Z,-5.39
2022-12-11T22:53:58.983Z,-5.42
2022-12-11T22:56:44.368Z,-5.41
2022-12-11T22:59:29.900Z,-5.43
2022-12-11T23:02:15.806Z,-5.48
2022-12-11T23:05:01.323Z,-5.51
2022-12-11T23:07:47.229Z,-5.55
2022-12-11T23:10:32.948Z,-5.57
2022-12-11T23:13:18.355Z,-5.61
2022-12-11T23:16:04.000Z,-5.63
2022-12-11T23:18:54.655Z,-5.67
2022-12-11T23:21:40.312Z,-5.67
2022-12-11T23:24:26.091Z,-5.69
2022-12-11T23:27:11.737Z,-5.74
2022-12-11T23:29:57.208Z,-5.76
2022-12-11T23:32:42.674Z,-5.76
2022-12-11T23:35:31.054Z,-5.76
2022-12-11T23:38:17.773Z,-5.77
2022-12-11T23:41:04.629Z,-5.79
2022-12-11T23:43:50.291Z,-5.81
2022-12-11T23:46:35.727Z,-5.83
2022-12-11T23:49:24.207Z,-5.86
2022-12-11T23:52:11.835Z,-5.87
2022-12-11T23:54:56.927Z,-5.87
2022-12-11T23:57:44.303Z,-5.87
